Aérodrome :







RETROUVEZ-NOUS SUR...

 
LOGIN :

S'inscrire | Disclaimer

   EN    FR    IT 

 









Légende :    VFR   VFR Marginal   IFR   IFR Intensif   IFR Très Intensif
Visi : 
Plafond : 
>= 8 km
>= 3000ft
5 à 8 km
1000 à 3000 ft
1500m à 5 km
500 à 1000 ft
800 à 1500m
200 à 500 ft
< 800m
< 200 ft
Symboles :   Orages  Brouillard  Fortes neiges  Fortes précipitations  Vent > 20 kt






- Altitude de l'aérodrome : 328 ft


KGFL - Floyd Bennett Memorial

DERNIER METAR :
  • 220411Z AUTO 28006KT 3SM BR OVC110 00/M01 A2989 RMK AO2 T00001006

METARs EXPIRÉS :
  • 220353Z AUTO 00000KT 2 1/2SM BR FEW090 OVC110 00/00 A2987 RMK AO2 UPB00E40FZRAB0256E00 SLP122 P0002 I1000 T00000000
  • 220343Z AUTO 08005KT 3SM BR SCT085 OVC110 00/M01 A2987 RMK AO2 UPB00E40FZRAB0256E00 PRESFR P0002 I1000 T00001011
  • 220306Z AUTO 10003KT 2 1/2SM UP BR OVC070 00/M01 A2994 RMK AO2 UPB00FZRAB0256E00 PRESFR P0001 I1000 T00001006
  • 220253Z AUTO 00000KT 3SM BR OVC070 00/M01 A2996 RMK AO2 UPB06E28FZRAB28E47 SLP153 P0000 60000 I1001 I3001 T00001011 56025
  • 220243Z AUTO 00000KT 3SM -FZRA BR BKN070 OVC090 00/M01 A2996 RMK AO2 UPB06E28FZRAB28 P0000 I1001 T00001011
  • 220234Z AUTO 00000KT 2 1/2SM -FZRA BR FEW060 OVC080 00/M01 A2996 RMK AO2 UPB06E28FZRAB28 P0000 I1000 T00001006
  • 220216Z AUTO 00000KT 2 1/2SM UP BR BKN080 OVC090 M01/M01 A2997 RMK AO2 UPB06 P0000 T10061011
  • 220153Z AUTO 00000KT 3SM BR OVC100 00/M01 A2997 RMK AO2 SLP157 T00001006

TAF KGFL
Valide du 22 à 03h jusqu'au 23 à 00h UTC


220253Z 2203/2224 16003KT 6SM BR VCSH BKN150
TEMPO 2203/2206 2SM -FZRA BR
FM220600 VRB03KT P6SM VCSH OVC050
TEMPO 2210/2214 3SM -SHRA OVC020
FM221400 25012G20KT P6SM BKN050 BKN100



MET'MAP, la Météo Aéronautique d'un coup d'oeil ! - Copyright ORBIFLY Décembre 2007 - Disclaimer

ORBIFLY MET'MAP TEAM :

Programmation & Développement : Alexandra Zaïnal
Conception & Développement : Baudouin d'Aumeries
Co-Programmation & Développement : Marc-Olivier Méhu
Soutien technique & logistique : Manuel Goepfert

Contact : metmap@orbifly.com




SOURCES & CREDITS :

   NOAA